createdAt,value
2019-03-31T04:00:52.694Z,9.39
2019-03-31T04:01:52.576Z,9.41
2019-03-31T04:03:45.242Z,9.42
2019-03-31T04:04:45.134Z,9.34
2019-03-31T04:06:37.838Z,9.42
2019-03-31T04:07:37.690Z,9.38
2019-03-31T04:09:30.364Z,9.39
2019-03-31T04:10:30.253Z,9.37
2019-03-31T04:12:22.935Z,9.32
2019-03-31T04:13:22.811Z,9.26
2019-03-31T04:15:15.487Z,9.26
2019-03-31T04:16:15.366Z,9.21
2019-03-31T04:18:08.044Z,9.14
2019-03-31T04:19:07.908Z,9.20
2019-03-31T04:21:00.601Z,9.24
2019-03-31T04:22:00.473Z,9.24
2019-03-31T04:23:53.222Z,9.17
2019-03-31T04:24:53.028Z,9.17
2019-03-31T04:26:45.720Z,9.24
2019-03-31T04:27:45.590Z,9.19
2019-03-31T04:29:38.270Z,9.08
2019-03-31T04:30:38.160Z,9.21
2019-03-31T04:32:30.855Z,9.16
2019-03-31T04:33:49.642Z,9.11
2019-03-31T04:35:23.386Z,9.21
2019-03-31T04:36:23.290Z,9.14
2019-03-31T04:38:15.977Z,9.20
2019-03-31T04:39:15.834Z,9.16
2019-03-31T04:41:08.501Z,9.09
2019-03-31T04:42:08.394Z,9.11
2019-03-31T04:44:01.075Z,9.11
2019-03-31T04:45:00.950Z,9.14
2019-03-31T04:46:53.625Z,9.11
2019-03-31T04:47:53.511Z,9.23
2019-03-31T04:49:46.175Z,9.09
2019-03-31T04:50:46.056Z,9.14
2019-03-31T04:52:38.756Z,9.23
2019-03-31T04:53:38.627Z,9.11
2019-03-31T04:55:31.307Z,9.14
2019-03-31T04:56:31.193Z,9.11
2019-03-31T04:58:23.889Z,9.05
2019-03-31T04:59:23.761Z,9.12
2019-03-31T05:01:16.432Z,9.03
2019-03-31T05:02:16.313Z,9.01
2019-03-31T05:04:09.158Z,9.03
2019-03-31T05:05:08.885Z,9.03
2019-03-31T05:07:01.537Z,9.03
2019-03-31T05:08:01.420Z,8.98
2019-03-31T05:09:54.106Z,9.03
2019-03-31T05:10:53.984Z,8.92
2019-03-31T05:12:46.647Z,9.01
2019-03-31T05:13:46.528Z,8.80
2019-03-31T05:15:39.219Z,8.92
2019-03-31T05:16:39.089Z,8.79
2019-03-31T05:18:31.770Z,8.77
2019-03-31T05:19:31.671Z,8.87
2019-03-31T05:21:24.332Z,8.80
2019-03-31T05:22:24.237Z,8.76
2019-03-31T05:24:16.906Z,8.67
2019-03-31T05:25:16.760Z,8.74
2019-03-31T05:27:09.426Z,8.60
2019-03-31T05:28:09.314Z,8.58
2019-03-31T05:30:02.174Z,8.64
2019-03-31T05:31:01.885Z,8.65
2019-03-31T05:32:54.530Z,8.62
2019-03-31T05:33:54.419Z,8.72
2019-03-31T05:35:47.120Z,8.69
2019-03-31T05:36:46.981Z,8.57
2019-03-31T05:38:39.651Z,8.46
2019-03-31T05:39:39.540Z,8.54
2019-03-31T05:41:32.211Z,8.53
2019-03-31T05:42:32.084Z,8.52
2019-03-31T05:44:24.769Z,8.52
2019-03-31T05:45:24.660Z,8.47
2019-03-31T05:47:17.348Z,8.58
2019-03-31T05:48:17.218Z,8.49
2019-03-31T05:50:09.921Z,8.46
2019-03-31T05:51:09.793Z,8.46
2019-03-31T05:53:02.458Z,8.47
2019-03-31T05:54:02.342Z,8.44
2019-03-31T05:55:55.013Z,8.49
2019-03-31T05:56:54.900Z,8.49
2019-03-31T05:58:47.575Z,8.44
2019-03-31T05:59:47.452Z,8.50
2019-03-31T06:01:40.110Z,8.43
2019-03-31T06:02:40.022Z,8.49
2019-03-31T06:04:33.668Z,8.44
2019-03-31T06:05:32.558Z,8.29
2019-03-31T06:07:25.230Z,8.35
2019-03-31T06:08:25.122Z,8.25
2019-03-31T06:10:17.823Z,8.44
2019-03-31T06:11:17.673Z,8.43
2019-03-31T06:13:10.356Z,8.46
2019-03-31T06:14:10.235Z,8.46
2019-03-31T06:16:02.914Z,8.49
2019-03-31T06:17:02.786Z,8.52
2019-03-31T06:18:55.452Z,8.58
2019-03-31T06:19:55.344Z,8.67
2019-03-31T06:21:48.039Z,8.74
2019-03-31T06:22:47.915Z,8.76
2019-03-31T06:24:40.578Z,8.83
2019-03-31T06:25:40.463Z,8.83
2019-03-31T06:27:33.147Z,8.98
2019-03-31T06:28:33.024Z,8.83
2019-03-31T06:30:25.683Z,8.92
2019-03-31T06:31:25.574Z,8.92
2019-03-31T06:33:18.249Z,9.08
2019-03-31T06:34:18.121Z,9.04
2019-03-31T06:36:10.789Z,9.09
2019-03-31T06:37:10.682Z,9.20
2019-03-31T06:39:03.384Z,9.32
2019-03-31T06:40:03.254Z,9.44
2019-03-31T06:41:55.938Z,9.57
2019-03-31T06:42:55.827Z,9.50
2019-03-31T06:44:48.516Z,9.37
2019-03-31T06:45:48.385Z,9.42
2019-03-31T06:47:41.055Z,9.48
2019-03-31T06:48:40.945Z,9.48
2019-03-31T06:50:33.646Z,9.32
2019-03-31T06:51:33.600Z,9.24
2019-03-31T06:53:26.185Z,9.38
2019-03-31T06:54:26.074Z,9.52
2019-03-31T06:56:18.761Z,9.59
2019-03-31T06:57:18.632Z,9.67
2019-03-31T06:59:11.344Z,9.59
2019-03-31T07:00:11.215Z,9.66
2019-03-31T07:02:03.870Z,9.64
2019-03-31T07:03:03.754Z,9.57
2019-03-31T07:05:01.326Z,9.74
2019-03-31T07:05:56.315Z,9.72
2019-03-31T07:07:49.000Z,9.80
2019-03-31T07:08:48.888Z,9.85
2019-03-31T07:10:41.581Z,9.93
2019-03-31T07:11:41.799Z,9.84
2019-03-31T07:13:34.141Z,9.81
2019-03-31T07:14:34.016Z,9.81
2019-03-31T07:16:26.712Z,10.20
2019-03-31T07:17:26.574Z,10.28
2019-03-31T07:19:19.239Z,10.41
2019-03-31T07:20:19.135Z,10.46
2019-03-31T07:22:11.814Z,11.09
2019-03-31T07:23:11.691Z,10.87
2019-03-31T07:25:04.352Z,10.47
2019-03-31T07:26:04.248Z,10.63
2019-03-31T07:27:56.942Z,11.52
2019-03-31T07:28:56.814Z,12.36
2019-03-31T07:30:49.510Z,12.61
2019-03-31T07:31:49.394Z,12.61
2019-03-31T07:33:42.087Z,12.63
2019-03-31T07:34:41.956Z,12.45
2019-03-31T07:36:34.635Z,12.13
2019-03-31T07:37:46.616Z,11.94
2019-03-31T07:39:27.285Z,11.67
2019-03-31T07:40:27.099Z,11.71
2019-03-31T07:42:19.801Z,11.78
2019-03-31T07:43:19.765Z,11.64
2019-03-31T07:45:12.355Z,11.78
2019-03-31T07:46:12.228Z,11.73
2019-03-31T07:48:08.003Z,11.49
2019-03-31T07:49:04.792Z,11.41
2019-03-31T07:50:57.474Z,11.33
2019-03-31T07:51:57.356Z,11.30
2019-03-31T07:53:50.023Z,11.27
2019-03-31T07:54:49.922Z,11.45
2019-03-31T07:56:42.608Z,11.67
2019-03-31T07:57:42.508Z,11.91
2019-03-31T07:59:35.160Z,12.03
2019-03-31T08:00:35.050Z,11.76
2019-03-31T08:02:27.986Z,11.38
2019-03-31T08:03:27.616Z,11.28
2019-03-31T08:05:32.366Z,10.88
2019-03-31T08:06:20.191Z,10.83
2019-03-31T08:08:12.878Z,10.42
2019-03-31T08:09:12.748Z,10.52
2019-03-31T08:11:05.441Z,10.57
2019-03-31T08:12:05.310Z,10.65
2019-03-31T08:13:57.985Z,10.44
2019-03-31T08:14:57.881Z,10.52
2019-03-31T08:16:50.578Z,10.90
2019-03-31T08:17:50.454Z,11.08
2019-03-31T08:19:43.121Z,11.13
2019-03-31T08:20:43.009Z,10.94
2019-03-31T08:22:35.707Z,10.77
2019-03-31T08:23:35.579Z,10.79
2019-03-31T08:25:28.255Z,10.80
2019-03-31T08:26:28.142Z,10.79
2019-03-31T08:28:21.380Z,10.83
2019-03-31T08:29:20.704Z,10.77
2019-03-31T08:31:13.379Z,10.70
2019-03-31T08:32:13.275Z,10.66
2019-03-31T08:34:05.962Z,10.66
2019-03-31T08:35:05.834Z,10.85
2019-03-31T08:36:58.548Z,10.80
2019-03-31T08:37:58.435Z,10.83
2019-03-31T08:39:51.125Z,10.61
2019-03-31T08:40:50.997Z,10.52
2019-03-31T08:42:43.672Z,10.47
2019-03-31T08:43:43.565Z,10.52
2019-03-31T08:45:36.253Z,10.46
2019-03-31T08:46:36.125Z,10.42
2019-03-31T08:48:28.787Z,10.57
2019-03-31T08:49:28.679Z,10.63
2019-03-31T08:51:21.490Z,10.72
2019-03-31T08:52:21.294Z,10.88
2019-03-31T08:54:13.947Z,11.31
2019-03-31T08:55:13.961Z,11.75
2019-03-31T08:57:06.526Z,12.20
2019-03-31T08:58:06.404Z,12.29
2019-03-31T08:59:59.096Z,12.44
2019-03-31T09:00:58.983Z,12.34
2019-03-31T09:02:51.678Z,12.59
2019-03-31T09:03:51.544Z,12.66
2019-03-31T09:05:44.214Z,13.06
2019-03-31T09:06:44.103Z,12.96
2019-03-31T09:08:36.798Z,12.96
2019-03-31T09:09:36.708Z,12.96
2019-03-31T09:11:29.346Z,12.26
2019-03-31T09:12:29.234Z,12.10
2019-03-31T09:14:21.930Z,11.49
2019-03-31T09:15:21.796Z,11.28
2019-03-31T09:17:14.468Z,11.26
2019-03-31T09:18:14.359Z,11.35
2019-03-31T09:20:07.059Z,11.24
2019-03-31T09:21:06.929Z,11.38
2019-03-31T09:22:59.593Z,11.52
2019-03-31T09:23:59.484Z,11.84
2019-03-31T09:25:52.173Z,12.28
2019-03-31T09:26:52.047Z,12.45
2019-03-31T09:28:44.722Z,12.55
2019-03-31T09:29:44.607Z,12.45
2019-03-31T09:31:37.309Z,12.10
2019-03-31T09:32:37.180Z,11.88
2019-03-31T09:34:29.853Z,11.60
2019-03-31T09:35:29.741Z,11.48
2019-03-31T09:37:22.435Z,11.56
2019-03-31T09:38:22.317Z,11.48
2019-03-31T09:40:14.987Z,11.43
2019-03-31T09:41:14.881Z,11.51
2019-03-31T09:43:07.567Z,11.38
2019-03-31T09:44:07.441Z,11.35
2019-03-31T09:46:00.102Z,11.42
2019-03-31T09:46:59.997Z,11.39
2019-03-31T09:48:52.682Z,11.46
2019-03-31T09:49:52.555Z,11.59
2019-03-31T09:51:45.228Z,11.61
2019-03-31T09:52:45.117Z,11.68
2019-03-31T09:54:37.809Z,11.46
2019-03-31T09:55:37.690Z,11.45
2019-03-31T09:57:31.354Z,11.57
2019-03-31T09:58:31.244Z,11.71
2019-03-31T10:00:23.936Z,11.73
2019-03-31T10:01:23.809Z,11.56
2019-03-31T10:03:16.501Z,11.68
2019-03-31T10:04:16.371Z,11.79
2019-03-31T10:06:11.059Z,12.20
2019-03-31T10:07:08.933Z,12.31
2019-03-31T10:09:01.601Z,12.37
2019-03-31T10:10:01.505Z,12.44
2019-03-31T10:11:54.189Z,12.37
2019-03-31T10:12:54.063Z,12.13
2019-03-31T10:14:46.733Z,11.97
2019-03-31T10:15:46.626Z,11.75
2019-03-31T10:17:39.316Z,11.82
2019-03-31T10:18:39.191Z,11.98
2019-03-31T10:20:31.959Z,12.16
2019-03-31T10:21:31.751Z,12.26
2019-03-31T10:23:24.462Z,12.52
2019-03-31T10:24:24.332Z,12.59
2019-03-31T10:26:31.126Z,12.62
2019-03-31T10:27:16.916Z,12.44
2019-03-31T10:29:09.607Z,12.31
2019-03-31T10:30:09.480Z,12.66
2019-03-31T10:32:02.148Z,12.83
2019-03-31T10:33:02.043Z,12.98
2019-03-31T10:34:54.733Z,12.98
2019-03-31T10:35:54.606Z,12.88
2019-03-31T10:37:47.306Z,12.70
2019-03-31T10:38:47.179Z,12.71
2019-03-31T10:40:39.887Z,12.69
2019-03-31T10:41:39.763Z,12.51
2019-03-31T10:43:32.426Z,12.45
2019-03-31T10:44:32.319Z,12.37
2019-03-31T10:46:25.012Z,12.37
2019-03-31T10:47:24.880Z,12.36
2019-03-31T10:49:17.547Z,12.29
2019-03-31T10:50:17.447Z,12.26
2019-03-31T10:52:10.131Z,12.34
2019-03-31T10:53:10.005Z,12.36
2019-03-31T10:55:02.693Z,12.47
2019-03-31T10:56:02.590Z,12.40
2019-03-31T10:57:55.303Z,12.48
2019-03-31T10:58:55.171Z,12.43
2019-03-31T11:00:47.877Z,12.34
2019-03-31T11:01:47.739Z,12.55
2019-03-31T11:03:40.438Z,12.66
2019-03-31T11:04:40.306Z,12.48
2019-03-31T11:06:32.982Z,12.26
2019-03-31T11:07:32.867Z,12.33
2019-03-31T11:09:25.554Z,12.23
2019-03-31T11:10:25.436Z,12.19
2019-03-31T11:12:18.115Z,11.71
2019-03-31T11:13:18.000Z,11.75
2019-03-31T11:15:10.691Z,11.88
2019-03-31T11:16:10.571Z,11.78
2019-03-31T11:18:03.261Z,11.66
2019-03-31T11:19:03.132Z,11.59
2019-03-31T11:20:55.827Z,11.76
2019-03-31T11:21:55.755Z,11.89
2019-03-31T11:23:48.385Z,12.11
2019-03-31T11:24:48.275Z,12.16
2019-03-31T11:26:40.960Z,12.31
2019-03-31T11:27:43.733Z,12.36
2019-03-31T11:29:33.506Z,12.51
2019-03-31T11:30:33.401Z,12.55
2019-03-31T11:32:26.092Z,12.65
2019-03-31T11:33:25.958Z,12.66
2019-03-31T11:35:18.637Z,12.52
2019-03-31T11:36:18.519Z,12.59
2019-03-31T11:38:11.221Z,12.63
2019-03-31T11:39:11.088Z,12.71
2019-03-31T11:41:03.774Z,12.55
2019-03-31T11:42:03.667Z,12.66
2019-03-31T11:43:56.355Z,12.92
2019-03-31T11:44:56.227Z,12.83
2019-03-31T11:46:48.898Z,13.11
2019-03-31T11:47:48.789Z,13.32
2019-03-31T11:49:41.485Z,13.68
2019-03-31T11:50:41.353Z,13.93
2019-03-31T11:52:34.029Z,14.36
2019-03-31T11:53:33.917Z,14.56
2019-03-31T11:55:26.628Z,14.87
2019-03-31T11:56:26.489Z,14.75
2019-03-31T11:58:19.165Z,14.89
2019-03-31T11:59:20.857Z,14.98
2019-03-31T12:01:11.743Z,14.75
2019-03-31T12:02:26.056Z,14.30
2019-03-31T12:04:04.300Z,13.68
2019-03-31T12:05:06.198Z,13.66
2019-03-31T12:06:56.883Z,13.72
2019-03-31T12:07:56.759Z,13.48
2019-03-31T12:09:49.439Z,13.53
2019-03-31T12:10:49.332Z,13.55
2019-03-31T12:12:42.034Z,13.84
2019-03-31T12:13:41.898Z,13.91
2019-03-31T12:15:34.573Z,14.30
2019-03-31T12:16:34.473Z,14.34
2019-03-31T12:18:27.174Z,14.59
2019-03-31T12:19:27.041Z,14.95
2019-03-31T12:21:19.742Z,15.34
2019-03-31T12:22:19.624Z,15.45
2019-03-31T12:24:12.289Z,15.34
2019-03-31T12:25:12.181Z,15.07
2019-03-31T12:27:05.061Z,15.04
2019-03-31T12:28:04.752Z,15.20
2019-03-31T12:29:57.432Z,15.00
2019-03-31T12:30:57.329Z,15.19
2019-03-31T12:32:50.024Z,15.33
2019-03-31T12:33:49.918Z,15.34
2019-03-31T12:35:42.574Z,15.35
2019-03-31T12:36:42.471Z,15.51
2019-03-31T12:38:35.181Z,15.75
2019-03-31T12:39:35.051Z,15.81
2019-03-31T12:41:27.740Z,15.83
2019-03-31T12:42:27.619Z,15.81
2019-03-31T12:44:20.325Z,15.73
2019-03-31T12:45:20.194Z,15.73
2019-03-31T12:47:12.885Z,15.16
2019-03-31T12:48:12.763Z,14.63
2019-03-31T12:50:05.486Z,13.75
2019-03-31T12:51:05.362Z,13.53
2019-03-31T12:52:58.045Z,13.21
2019-03-31T12:53:57.935Z,13.36
2019-03-31T12:55:59.970Z,13.62
2019-03-31T12:56:50.504Z,13.60
2019-03-31T12:58:43.209Z,13.76
2019-03-31T12:59:43.110Z,13.62
2019-03-31T13:01:35.796Z,13.63
2019-03-31T13:02:35.665Z,13.79
2019-03-31T13:04:28.353Z,14.19
2019-03-31T13:05:28.243Z,14.45
2019-03-31T13:07:20.932Z,15.02
2019-03-31T13:08:20.815Z,15.13
2019-03-31T13:10:13.493Z,14.71
2019-03-31T13:11:13.381Z,14.41
2019-03-31T13:13:06.083Z,14.20
2019-03-31T13:14:05.959Z,14.16
2019-03-31T13:15:58.633Z,13.94
2019-03-31T13:17:01.414Z,14.01
2019-03-31T13:18:51.232Z,14.15
2019-03-31T13:19:51.105Z,14.03
2019-03-31T13:21:43.790Z,13.99
2019-03-31T13:22:45.893Z,13.93
2019-03-31T13:24:36.385Z,14.34
2019-03-31T13:25:36.261Z,14.52
2019-03-31T13:27:28.946Z,14.42
2019-03-31T13:28:28.979Z,14.53
2019-03-31T13:30:22.024Z,14.64
2019-03-31T13:31:21.409Z,14.51
2019-03-31T13:33:14.089Z,14.36
2019-03-31T13:34:13.990Z,14.49
2019-03-31T13:36:06.680Z,14.57
2019-03-31T13:37:06.548Z,14.28
2019-03-31T13:38:59.228Z,14.45
2019-03-31T13:39:59.127Z,14.33
2019-03-31T13:41:51.826Z,14.13
2019-03-31T13:42:51.699Z,13.93
2019-03-31T13:44:44.377Z,13.70
2019-03-31T13:45:44.272Z,13.62
2019-03-31T13:47:36.975Z,13.72
2019-03-31T13:48:36.867Z,13.90
2019-03-31T13:50:29.526Z,14.26
2019-03-31T13:51:29.406Z,14.28
2019-03-31T13:53:22.112Z,14.46
2019-03-31T13:54:22.029Z,14.64
2019-03-31T13:56:15.275Z,14.83
2019-03-31T13:57:15.179Z,14.87
2019-03-31T13:59:09.078Z,14.19
2019-03-31T14:00:07.129Z,14.02
2019-03-31T14:02:00.312Z,13.94
2019-03-31T14:02:59.690Z,14.48
2019-03-31T14:04:52.389Z,14.98
2019-03-31T14:05:52.260Z,15.27
2019-03-31T14:07:44.941Z,15.58
2019-03-31T14:08:44.833Z,15.86
2019-03-31T14:10:37.525Z,15.49
2019-03-31T14:11:37.418Z,15.08
2019-03-31T14:13:30.088Z,14.90
2019-03-31T14:14:29.982Z,14.95
2019-03-31T14:16:22.687Z,14.83
2019-03-31T14:17:24.437Z,14.82
2019-03-31T14:19:15.235Z,14.45
2019-03-31T14:20:15.133Z,14.06
2019-03-31T14:22:07.824Z,13.69
2019-03-31T14:23:07.684Z,13.65
2019-03-31T14:25:00.491Z,14.01
2019-03-31T14:26:00.254Z,14.34
2019-03-31T14:27:52.962Z,15.00
2019-03-31T14:28:52.830Z,15.20
2019-03-31T14:30:45.505Z,15.52
2019-03-31T14:31:45.394Z,15.67
2019-03-31T14:33:38.084Z,15.35
2019-03-31T14:34:37.967Z,14.98
2019-03-31T14:36:30.651Z,14.36
2019-03-31T14:37:30.549Z,14.05
2019-03-31T14:39:23.245Z,13.87
2019-03-31T14:40:23.114Z,13.84
2019-03-31T14:42:15.913Z,13.62
2019-03-31T14:43:15.686Z,13.66
2019-03-31T14:45:08.396Z,13.37
2019-03-31T14:46:08.251Z,13.39
2019-03-31T14:48:00.923Z,13.47
2019-03-31T14:49:00.845Z,13.28
2019-03-31T14:50:53.529Z,13.27
2019-03-31T14:51:53.389Z,13.21
2019-03-31T14:53:46.073Z,13.50
2019-03-31T14:54:45.958Z,13.66
2019-03-31T14:56:38.661Z,13.95
2019-03-31T14:57:38.526Z,14.15
2019-03-31T14:59:31.197Z,14.41
2019-03-31T15:00:31.086Z,14.34
2019-03-31T15:02:23.792Z,14.24
2019-03-31T15:03:23.660Z,14.06
2019-03-31T15:05:16.339Z,14.27
2019-03-31T15:06:16.227Z,14.31
2019-03-31T15:08:08.919Z,14.49
2019-03-31T15:09:08.799Z,14.39
2019-03-31T15:11:01.466Z,13.95
2019-03-31T15:12:01.354Z,13.83
2019-03-31T15:13:54.047Z,13.42
2019-03-31T15:14:53.922Z,13.40
2019-03-31T15:16:48.418Z,13.55
2019-03-31T15:17:46.506Z,13.47
2019-03-31T15:19:39.191Z,13.60
2019-03-31T15:20:39.067Z,13.62
2019-03-31T15:22:31.749Z,13.58
2019-03-31T15:23:31.638Z,13.62
2019-03-31T15:25:24.326Z,13.39
2019-03-31T15:26:24.205Z,13.31
2019-03-31T15:28:17.000Z,13.24
2019-03-31T15:29:16.918Z,13.36
2019-03-31T15:31:09.554Z,13.42
2019-03-31T15:32:09.423Z,13.48
2019-03-31T15:34:02.131Z,13.57
2019-03-31T15:35:02.174Z,13.54
2019-03-31T15:36:54.664Z,13.73
2019-03-31T15:37:54.553Z,13.70
2019-03-31T15:39:47.254Z,13.88
2019-03-31T15:40:48.638Z,14.01
2019-03-31T15:42:39.789Z,13.99
2019-03-31T15:43:39.691Z,13.93
2019-03-31T15:45:32.382Z,13.93
2019-03-31T15:46:32.338Z,13.94
2019-03-31T15:48:24.921Z,14.03
2019-03-31T15:49:24.805Z,14.11
2019-03-31T15:51:17.506Z,14.16
2019-03-31T15:52:17.400Z,14.01
2019-03-31T15:54:10.058Z,13.88
2019-03-31T15:55:09.954Z,13.81
2019-03-31T15:57:02.660Z,13.84
2019-03-31T15:58:05.204Z,13.69
2019-03-31T15:59:55.204Z,13.83
2019-03-31T16:00:55.098Z,13.86
2019-03-31T16:02:47.792Z,13.93
2019-03-31T16:03:47.662Z,13.93
2019-03-31T16:05:40.352Z,13.97
2019-03-31T16:06:40.246Z,14.05
2019-03-31T16:08:32.942Z,14.02
2019-03-31T16:09:32.808Z,14.02
2019-03-31T16:11:25.485Z,13.91
2019-03-31T16:12:25.383Z,13.70
2019-03-31T16:14:18.071Z,13.68
2019-03-31T16:15:17.950Z,13.63
2019-03-31T16:17:10.633Z,13.50
2019-03-31T16:18:10.530Z,13.57
2019-03-31T16:20:03.223Z,13.53
2019-03-31T16:21:03.094Z,13.37
2019-03-31T16:22:55.777Z,13.06
2019-03-31T16:23:55.662Z,12.99
2019-03-31T16:25:48.360Z,13.02
2019-03-31T16:26:48.232Z,13.06
2019-03-31T16:28:40.906Z,13.01
2019-03-31T16:29:40.798Z,13.03
2019-03-31T16:31:33.486Z,13.07
2019-03-31T16:32:33.356Z,13.10
2019-03-31T16:34:26.032Z,12.92
2019-03-31T16:35:25.917Z,12.80
2019-03-31T16:37:18.624Z,12.86
2019-03-31T16:38:18.485Z,12.98
2019-03-31T16:40:11.152Z,12.92
2019-03-31T16:41:11.043Z,12.88
2019-03-31T16:43:03.740Z,12.89
2019-03-31T16:44:03.665Z,12.89
2019-03-31T16:45:56.280Z,12.74
2019-03-31T16:46:56.170Z,12.74
2019-03-31T16:48:48.866Z,12.89
2019-03-31T16:49:48.744Z,12.83
2019-03-31T16:51:41.408Z,12.89
2019-03-31T16:52:41.307Z,12.89
2019-03-31T16:54:33.996Z,12.66
2019-03-31T16:55:33.896Z,12.63
2019-03-31T16:57:26.540Z,12.65
2019-03-31T16:58:26.432Z,12.66
2019-03-31T17:00:19.143Z,12.56
2019-03-31T17:01:19.004Z,12.41
2019-03-31T17:03:11.672Z,12.23
2019-03-31T17:04:11.560Z,12.28
2019-03-31T17:06:04.257Z,12.33
2019-03-31T17:07:04.124Z,12.31
2019-03-31T17:08:56.796Z,12.22
2019-03-31T17:09:56.687Z,12.34
2019-03-31T17:11:49.373Z,12.28
2019-03-31T17:12:49.244Z,12.26
2019-03-31T17:14:41.914Z,12.19
2019-03-31T17:15:41.813Z,12.16
2019-03-31T17:17:34.499Z,12.13
2019-03-31T17:18:34.370Z,12.07
2019-03-31T17:20:27.037Z,12.10
2019-03-31T17:21:26.931Z,12.05
2019-03-31T17:23:19.612Z,11.91
2019-03-31T17:24:19.491Z,11.89
2019-03-31T17:26:12.157Z,11.78
2019-03-31T17:27:14.095Z,11.76
2019-03-31T17:29:04.738Z,11.70
2019-03-31T17:30:04.602Z,11.64
2019-03-31T17:31:57.278Z,11.56
2019-03-31T17:32:57.165Z,11.57
2019-03-31T17:34:49.845Z,11.49
2019-03-31T17:35:49.719Z,11.52
2019-03-31T17:37:42.380Z,11.39
2019-03-31T17:38:42.279Z,11.41
2019-03-31T17:40:34.973Z,11.35
2019-03-31T17:41:34.837Z,11.39
2019-03-31T17:43:27.498Z,11.21
2019-03-31T17:44:27.391Z,11.33
2019-03-31T17:46:20.072Z,11.21
2019-03-31T17:47:19.940Z,11.26
2019-03-31T17:49:12.607Z,11.15
2019-03-31T17:50:12.501Z,11.10
2019-03-31T17:52:05.195Z,11.13
2019-03-31T17:53:05.067Z,10.98
2019-03-31T17:54:57.748Z,10.95
2019-03-31T17:55:57.639Z,10.98
2019-03-31T17:57:50.305Z,10.90
2019-03-31T17:58:50.246Z,10.94
2019-03-31T18:00:42.849Z,10.80
2019-03-31T18:01:42.735Z,10.85
2019-03-31T18:03:35.437Z,10.72
2019-03-31T18:04:38.215Z,10.69
2019-03-31T18:06:27.953Z,10.66
2019-03-31T18:07:27.846Z,10.67
2019-03-31T18:09:20.531Z,10.69
2019-03-31T18:10:21.584Z,10.63
2019-03-31T18:12:13.098Z,10.67
2019-03-31T18:13:12.954Z,10.61
2019-03-31T18:15:05.654Z,10.67
2019-03-31T18:16:05.512Z,10.57
2019-03-31T18:17:58.180Z,10.41
2019-03-31T18:18:58.072Z,10.42
2019-03-31T18:20:50.764Z,10.39
2019-03-31T18:21:50.635Z,10.31
2019-03-31T18:23:43.307Z,10.41
2019-03-31T18:24:43.244Z,10.35
2019-03-31T18:26:35.872Z,10.35
2019-03-31T18:27:35.749Z,10.29
2019-03-31T18:29:28.410Z,10.25
2019-03-31T18:30:28.300Z,10.25
2019-03-31T18:32:20.996Z,10.13
2019-03-31T18:33:20.868Z,10.14
2019-03-31T18:35:16.842Z,10.15
2019-03-31T18:36:13.922Z,10.03
2019-03-31T18:38:06.602Z,9.99
2019-03-31T18:39:06.473Z,9.95
2019-03-31T18:40:59.143Z,9.96
2019-03-31T18:41:59.032Z,9.81
2019-03-31T18:43:52.100Z,9.84
2019-03-31T18:44:51.587Z,9.88
2019-03-31T18:46:44.282Z,9.81
2019-03-31T18:47:44.158Z,9.80
2019-03-31T18:49:36.834Z,9.78
2019-03-31T18:50:36.707Z,9.74
2019-03-31T18:52:29.372Z,9.66
2019-03-31T18:53:29.259Z,9.66
2019-03-31T18:55:21.934Z,9.59
2019-03-31T18:56:21.806Z,9.64
2019-03-31T18:58:14.470Z,9.56
2019-03-31T18:59:14.358Z,9.52
2019-03-31T19:01:07.055Z,9.45
2019-03-31T19:02:06.923Z,9.41
2019-03-31T19:03:59.583Z,9.35
2019-03-31T19:04:59.476Z,9.29
2019-03-31T19:06:52.165Z,9.32
2019-03-31T19:07:52.347Z,9.26
2019-03-31T19:09:44.698Z,9.14
2019-03-31T19:10:49.641Z,9.09
2019-03-31T19:12:37.274Z,9.14
2019-03-31T19:13:37.145Z,9.05
2019-03-31T19:15:29.816Z,9.09
2019-03-31T19:16:29.704Z,9.09
2019-03-31T19:18:22.396Z,8.98
2019-03-31T19:19:22.255Z,8.95
2019-03-31T19:21:14.921Z,8.98
2019-03-31T19:22:14.804Z,8.94
2019-03-31T19:24:07.482Z,8.86
2019-03-31T19:25:07.351Z,8.92
2019-03-31T19:27:00.026Z,8.71
2019-03-31T19:27:59.908Z,8.69
2019-03-31T19:29:52.588Z,8.72
2019-03-31T19:30:52.451Z,8.74
2019-03-31T19:32:45.126Z,8.60
2019-03-31T19:33:45.011Z,8.62
2019-03-31T19:35:37.688Z,8.64
2019-03-31T19:36:37.555Z,8.47
2019-03-31T19:38:30.214Z,8.52
2019-03-31T19:39:30.109Z,8.47
2019-03-31T19:41:22.802Z,8.39
2019-03-31T19:42:22.665Z,8.36
2019-03-31T19:44:15.325Z,8.32
2019-03-31T19:45:15.209Z,8.32
2019-03-31T19:47:07.889Z,8.34
2019-03-31T19:48:07.762Z,8.31
2019-03-31T19:50:00.425Z,8.25
2019-03-31T19:51:00.320Z,8.24
2019-03-31T19:52:53.001Z,8.16
2019-03-31T19:53:52.865Z,8.10
2019-03-31T19:55:45.533Z,8.01
2019-03-31T19:56:45.430Z,7.99
2019-03-31T19:58:38.105Z,7.98
2019-03-31T19:59:37.969Z,7.95
2019-03-31T20:01:30.867Z,7.91
2019-03-31T20:02:30.532Z,7.95
2019-03-31T20:04:23.206Z,7.86
2019-03-31T20:05:23.071Z,7.92
2019-03-31T20:07:15.745Z,7.86
2019-03-31T20:08:15.638Z,7.78
2019-03-31T20:10:08.341Z,7.80
2019-03-31T20:11:08.209Z,7.71
2019-03-31T20:13:00.849Z,7.74
2019-03-31T20:14:00.731Z,7.58
2019-03-31T20:15:53.412Z,7.68
2019-03-31T20:16:53.278Z,7.54
2019-03-31T20:18:45.943Z,7.44
2019-03-31T20:19:45.830Z,7.45
2019-03-31T20:21:38.516Z,7.48
2019-03-31T20:22:38.391Z,7.36
2019-03-31T20:24:31.060Z,7.27
2019-03-31T20:25:30.942Z,7.31
2019-03-31T20:27:23.618Z,7.34
2019-03-31T20:28:23.498Z,7.34
2019-03-31T20:30:16.160Z,7.30
2019-03-31T20:31:16.078Z,7.23
2019-03-31T20:33:08.724Z,7.21
2019-03-31T20:34:08.672Z,7.16
2019-03-31T20:36:01.252Z,7.16
2019-03-31T20:37:01.143Z,7.08
2019-03-31T20:38:55.552Z,7.04
2019-03-31T20:39:56.877Z,7.11
2019-03-31T20:41:46.366Z,7.01
2019-03-31T20:42:46.248Z,6.97
2019-03-31T20:44:38.930Z,6.93
2019-03-31T20:45:38.797Z,6.85
2019-03-31T20:47:31.483Z,6.82
2019-03-31T20:48:31.348Z,6.83
2019-03-31T20:50:24.029Z,6.79
2019-03-31T20:51:23.907Z,6.73
2019-03-31T20:53:16.595Z,6.65
2019-03-31T20:54:16.454Z,6.65
2019-03-31T20:56:09.121Z,6.70
2019-03-31T20:57:09.003Z,6.70
2019-03-31T20:59:01.681Z,6.70
2019-03-31T21:00:01.556Z,6.65
2019-03-31T21:01:54.223Z,6.60
2019-03-31T21:02:54.112Z,6.70
2019-03-31T21:04:46.792Z,6.64
2019-03-31T21:05:46.652Z,6.62
2019-03-31T21:07:39.312Z,6.55
2019-03-31T21:08:39.199Z,6.54
2019-03-31T21:10:31.884Z,6.44
2019-03-31T21:11:31.753Z,6.46
2019-03-31T21:13:24.415Z,6.42
2019-03-31T21:14:24.301Z,6.44
2019-03-31T21:16:17.158Z,6.46
2019-03-31T21:17:16.841Z,6.42
2019-03-31T21:19:09.531Z,6.34
2019-03-31T21:20:09.391Z,6.37
2019-03-31T21:22:02.071Z,6.39
2019-03-31T21:23:01.930Z,6.36
2019-03-31T21:24:54.591Z,6.21
2019-03-31T21:25:54.480Z,6.21
2019-03-31T21:27:47.150Z,6.26
2019-03-31T21:28:47.025Z,6.21
2019-03-31T21:30:39.682Z,6.21
2019-03-31T21:31:39.566Z,6.14
2019-03-31T21:33:32.252Z,6.14
2019-03-31T21:34:32.121Z,6.10
2019-03-31T21:36:24.797Z,6.10
2019-03-31T21:37:24.669Z,6.10
2019-03-31T21:39:17.354Z,5.98
2019-03-31T21:40:17.240Z,5.99
2019-03-31T21:42:09.877Z,5.99
2019-03-31T21:43:09.758Z,6.06
2019-03-31T21:45:02.435Z,5.99
2019-03-31T21:46:02.308Z,5.96
2019-03-31T21:47:54.971Z,5.91
2019-03-31T21:48:54.854Z,5.92
2019-03-31T21:50:47.532Z,5.92
2019-03-31T21:51:47.400Z,5.95
2019-03-31T21:53:40.068Z,5.87
2019-03-31T21:54:39.979Z,5.85
2019-03-31T21:56:32.639Z,5.85
2019-03-31T21:57:32.503Z,5.82
2019-03-31T21:59:25.159Z,5.80
